< < Back
Terminal Aerodrome Forecast


Current Version              Previous Versions:   1  2  3  4  5  6  7  8  9  

Terminal Aerodrome Forecast

312
FTUS44 KMOB 251127
TAFPNS
TAF
KPNS 251127Z 2512/2612 03005KT P6SM FEW250
     FM251500 08009KT P6SM SCT070 SCT250
     FM252100 10010KT P6SM FEW250
     FM260300 07003KT P6SM FEW250=

Latest METAR

127
SAUS70 KWBC 251800 RRL
MTRPNS
METAR KPNS 251753Z VRB04KT 10SM CLR 32/22 A3010 RMK AO2 SLP194 T03220217
10322 20256 58013


USA.gov is the U.S. government's official web portal to all federal, state and local government web resources and services.